Archival Weather

Luke Afb

Glendale, Arizona (KLUF)

Report from: Friday, April 19, 2024 6:55 AM MST
Current time: Monday, June 24, 2024 4:20 AM MST

Current weather – Weather history – Daily summaries
Weather forecast

Temperature16.6°C (61.9°F)
Dew point0.3°C (32.5°F)
Winds 4 kts (2.1 m/s, 4.6 mph) North (350°)
Visibility10 mi. (16.1 km)
Clouds Sky clear
Altimeter29.85 in.Hg (1011 mB)
Relative humidity33 %
Density altitude402 ft. (123 m)
Sea-level pressure101.0 kPa (1010 mB, 29.82 in.Hg)
Remarks Fully automated report
System requires maintenance
Automated weather observing station with precipitation discriminator
Flight conditions Visual Meteorological Conditions
Raw dataKLUF 191355Z AUTO 35004KT 10SM CLR 17/00 A2985 RMK AO2 SLP098 T01660003 $
An error has occurred. This application may no longer respond until reloaded. Reload 🗙